Time;durP1;ratioP1;P1;durP2;ratioP2;P2;SDS_P1;SDS_P2;PMS_P1;PMS_P2;Temp;Humidity;BMP_temperature;BMP_pressure;BME280_temperature;BME280_humidity;BME280_pressure;Samples;Min_cycle;Max_cycle;Signal;HPM_P1;HPM_P2
2021/09/16 00:02:09;;;;;;;20.05;15.57;;;12.70;94.00;;;;;;5050563;28;20072;-81
2021/09/16 00:04:36;;;;;;;20.30;15.25;;;12.70;94.00;;;;;;5062656;28;20044;-80
2021/09/16 00:07:03;;;;;;;18.98;14.45;;;12.60;94.10;;;;;;5061800;28;20049;-80
2021/09/16 00:09:30;;;;;;;20.67;14.80;;;12.60;94.30;;;;;;5059985;28;20072;-81
2021/09/16 00:11:58;;;;;;;16.98;14.50;;;12.60;94.40;;;;;;5059050;28;20044;-81
2021/09/16 00:14:25;;;;;;;19.75;14.95;;;12.60;94.40;;;;;;5069569;28;20499;-81
2021/09/16 00:16:52;;;;;;;18.17;13.88;;;12.60;94.10;;;;;;5067071;28;20052;-81
2021/09/16 00:19:19;;;;;;;20.30;16.15;;;12.50;94.10;;;;;;5070085;28;20178;-82
2021/09/16 00:21:46;;;;;;;18.52;15.18;;;12.50;94.10;;;;;;5060546;28;20131;-82
2021/09/16 00:24:13;;;;;;;18.38;15.35;;;12.50;94.10;;;;;;5035861;28;20587;-82
2021/09/16 00:26:40;;;;;;;19.90;14.20;;;12.50;94.20;;;;;;5069773;28;20049;-81
2021/09/16 00:29:09;;;;;;;21.13;14.40;;;12.50;94.10;;;;;;5061817;28;20077;-74
2021/09/16 00:31:36;;;;;;;18.15;14.73;;;12.40;94.20;;;;;;5070331;28;20440;-81
2021/09/16 00:34:03;;;;;;;18.88;15.02;;;12.30;94.30;;;;;;5070305;28;20041;-81
2021/09/16 00:36:30;;;;;;;18.20;15.73;;;12.30;94.30;;;;;;5069656;28;20091;-82
2021/09/16 00:38:57;;;;;;;19.10;15.27;;;12.30;94.30;;;;;;5061162;28;20435;-81
2021/09/16 00:41:28;;;;;;;19.50;14.93;;;12.30;94.30;;;;;;5061715;28;20059;-81
2021/09/16 00:43:56;;;;;;;15.70;13.70;;;12.30;94.30;;;;;;5070076;28;20120;-81
2021/09/16 00:46:23;;;;;;;15.07;12.35;;;12.30;94.30;;;;;;5058907;28;20504;-81
2021/09/16 00:48:50;;;;;;;16.08;14.27;;;12.20;94.30;;;;;;5069765;28;20040;-81
2021/09/16 00:51:16;;;;;;;19.40;14.57;;;12.20;94.30;;;;;;5069733;28;20056;-81
2021/09/16 00:53:44;;;;;;;18.75;14.45;;;12.20;94.50;;;;;;5062034;28;20131;-81
2021/09/16 00:56:11;;;;;;;18.40;14.85;;;12.10;94.50;;;;;;5055476;28;20088;-81
2021/09/16 00:58:40;;;;;;;18.92;15.50;;;12.10;94.40;;;;;;5062658;28;20048;-79
2021/09/16 01:01:07;;;;;;;21.02;14.45;;;12.10;94.50;;;;;;5060486;28;20136;-76
2021/09/16 01:03:34;;;;;;;19.58;15.13;;;12.10;94.40;;;;;;5070356;28;20048;-80
2021/09/16 01:06:01;;;;;;;20.13;15.32;;;12.10;94.30;;;;;;5069683;28;20127;-81
2021/09/16 01:08:29;;;;;;;21.10;14.10;;;12.10;94.30;;;;;;5073462;28;20136;-81
2021/09/16 01:10:58;;;;;;;18.65;14.38;;;12.00;94.30;;;;;;5061645;28;20462;-78
2021/09/16 01:13:25;;;;;;;18.45;14.27;;;12.00;94.40;;;;;;5054246;28;20105;-80
2021/09/16 01:15:52;;;;;;;18.63;14.93;;;12.00;94.40;;;;;;5045049;28;20436;-81
2021/09/16 01:18:19;;;;;;;19.95;13.95;;;12.00;94.40;;;;;;5073094;28;20044;-82
2021/09/16 01:20:46;;;;;;;18.25;13.77;;;11.90;94.40;;;;;;5072907;28;20049;-81
2021/09/16 01:23:13;;;;;;;17.52;12.80;;;11.90;94.40;;;;;;5065053;28;20044;-81
2021/09/16 01:25:40;;;;;;;18.05;14.50;;;11.90;94.40;;;;;;5062142;28;20055;-80
2021/09/16 01:28:07;;;;;;;19.00;15.13;;;11.90;94.50;;;;;;5053049;28;20107;-76
2021/09/16 01:30:34;;;;;;;20.63;14.20;;;11.80;94.50;;;;;;5072974;28;20045;-80
2021/09/16 01:33:01;;;;;;;19.45;14.80;;;11.80;94.30;;;;;;5073186;28;20050;-80
2021/09/16 01:35:28;;;;;;;19.02;13.88;;;11.80;94.40;;;;;;5045286;28;20127;-78
2021/09/16 01:37:56;;;;;;;17.48;14.73;;;11.80;94.40;;;;;;5053558;28;20076;-82
2021/09/16 01:40:23;;;;;;;21.48;16.05;;;11.80;94.50;;;;;;5064919;28;20048;-81
2021/09/16 01:42:50;;;;;;;19.40;14.85;;;11.70;94.60;;;;;;5064155;28;20119;-80
2021/09/16 01:45:19;;;;;;;44.92;16.35;;;11.80;94.60;;;;;;5072455;28;20437;-77
2021/09/16 01:47:46;;;;;;;20.23;14.73;;;11.70;94.50;;;;;;5064908;28;20083;-80
2021/09/16 01:50:14;;;;;;;19.90;15.15;;;11.70;94.50;;;;;;5073206;28;20164;-79
2021/09/16 01:52:41;;;;;;;20.83;15.20;;;11.70;94.50;;;;;;5069102;28;20072;-80
2021/09/16 01:55:08;;;;;;;20.65;16.50;;;11.70;94.70;;;;;;5062614;28;20052;-80
2021/09/16 01:57:35;;;;;;;25.63;17.83;;;11.70;94.60;;;;;;5072222;28;20143;-81
2021/09/16 02:00:03;;;;;;;26.90;18.20;;;11.70;94.70;;;;;;5071929;28;20094;-80
2021/09/16 02:02:30;;;;;;;27.05;18.10;;;11.70;94.70;;;;;;5061600;28;20585;-80
2021/09/16 02:04:59;;;;;;;25.80;19.30;;;11.70;94.90;;;;;;5062376;28;20052;-80
2021/09/16 02:07:26;;;;;;;29.05;19.10;;;11.70;94.70;;;;;;5071993;28;20051;-80
2021/09/16 02:09:53;;;;;;;27.10;18.10;;;11.70;95.00;;;;;;5072210;28;20136;-80
2021/09/16 02:12:20;;;;;;;24.05;17.58;;;11.70;94.80;;;;;;5061110;28;20131;-80
2021/09/16 02:14:47;;;;;;;25.25;18.70;;;11.70;94.90;;;;;;5064574;28;20396;-81
2021/09/16 02:17:14;;;;;;;23.80;17.50;;;11.70;94.80;;;;;;5058583;28;20464;-81
2021/09/16 02:19:41;;;;;;;22.67;16.73;;;11.70;95.10;;;;;;5071410;28;20538;-81
2021/09/16 02:22:08;;;;;;;28.35;19.67;;;11.60;94.60;;;;;;5063113;28;20135;-81
2021/09/16 02:24:35;;;;;;;26.92;17.92;;;11.60;94.70;;;;;;5058724;28;20507;-82
2021/09/16 02:27:02;;;;;;;26.17;18.65;;;11.60;94.70;;;;;;5030553;28;20052;-81
2021/09/16 02:29:29;;;;;;;25.40;17.00;;;11.50;94.80;;;;;;5064520;28;20046;-80
2021/09/16 02:31:56;;;;;;;32.80;20.23;;;11.50;94.70;;;;;;5064309;28;20510;-81
2021/09/16 02:34:23;;;;;;;27.23;18.42;;;11.50;94.80;;;;;;5063524;28;20052;-82
2021/09/16 02:36:50;;;;;;;24.75;17.67;;;11.50;94.60;;;;;;5060169;28;20558;-81
2021/09/16 02:39:17;;;;;;;25.67;18.77;;;11.50;95.00;;;;;;5072097;28;20082;-80
2021/09/16 02:41:44;;;;;;;24.25;16.10;;;11.40;95.00;;;;;;5071372;28;20123;-82
2021/09/16 02:44:12;;;;;;;24.42;16.92;;;11.40;94.90;;;;;;5071583;28;20052;-81
2021/09/16 02:46:40;;;;;;;22.45;15.63;;;11.40;94.90;;;;;;5069394;28;20365;-81
2021/09/16 02:49:07;;;;;;;23.58;15.13;;;11.30;94.70;;;;;;5072438;28;20056;-82
2021/09/16 02:51:35;;;;;;;22.73;15.88;;;11.30;94.90;;;;;;5071415;28;20088;-81
2021/09/16 02:54:02;;;;;;;25.30;17.00;;;11.30;94.80;;;;;;5071524;28;20047;-78
2021/09/16 02:56:28;;;;;;;24.65;16.80;;;11.30;94.90;;;;;;5071235;28;20404;-77
2021/09/16 02:58:55;;;;;;;20.83;15.95;;;11.20;95.00;;;;;;5060631;28;20055;-81
2021/09/16 03:01:22;;;;;;;20.52;15.23;;;11.20;94.90;;;;;;5071702;28;20135;-83
2021/09/16 03:03:56;;;;;;;21.55;15.75;;;11.20;94.80;;;;;;5061140;28;20052;-81
2021/09/16 03:06:23;;;;;;;31.65;17.45;;;11.20;95.20;;;;;;5070939;28;20044;-80
2021/09/16 03:08:53;;;;;;;24.08;16.13;;;11.20;94.90;;;;;;5061553;28;20095;-81
2021/09/16 03:11:20;;;;;;;24.10;16.33;;;11.10;95.10;;;;;;5062863;28;20079;-80
2021/09/16 03:13:46;;;;;;;23.17;15.93;;;11.20;95.00;;;;;;5044259;28;20055;-77
2021/09/16 03:16:13;;;;;;;26.90;19.83;;;11.20;94.90;;;;;;5071129;28;20095;-81
2021/09/16 03:18:40;;;;;;;27.02;19.17;;;11.20;95.20;;;;;;5071374;28;20040;-81
2021/09/16 03:21:08;;;;;;;26.13;18.75;;;11.10;95.20;;;;;;5059911;28;20135;-81
2021/09/16 03:23:35;;;;;;;28.30;19.70;;;11.10;95.30;;;;;;5041606;28;20066;-82
2021/09/16 03:26:02;;;;;;;31.13;19.95;;;11.10;95.20;;;;;;5071411;28;20044;-81
2021/09/16 03:28:29;;;;;;;27.70;19.13;;;11.10;95.30;;;;;;5070381;28;20043;-80
2021/09/16 03:30:56;;;;;;;29.98;19.38;;;11.10;95.50;;;;;;5070563;28;20407;-81
2021/09/16 03:33:23;;;;;;;32.08;20.20;;;11.10;95.40;;;;;;5070397;28;20428;-79
2021/09/16 03:35:50;;;;;;;32.03;20.67;;;11.10;95.30;;;;;;5070891;28;20041;-80
2021/09/16 03:38:17;;;;;;;29.73;21.65;;;11.10;95.50;;;;;;5070185;28;20037;-81
2021/09/16 03:40:44;;;;;;;28.55;19.98;;;11.00;95.40;;;;;;5062490;28;20044;-81
2021/09/16 03:43:11;;;;;;;29.52;19.85;;;11.00;95.30;;;;;;5070695;28;20059;-81
2021/09/16 03:45:37;;;;;;;30.52;19.63;;;11.00;95.20;;;;;;5070502;28;20514;-74
2021/09/16 03:48:07;;;;;;;28.00;18.85;;;11.00;95.30;;;;;;5072120;28;20048;-81
2021/09/16 03:50:36;;;;;;;26.92;18.40;;;11.00;95.20;;;;;;5071439;28;20053;-81
2021/09/16 03:53:06;;;;;;;30.15;19.35;;;11.00;95.30;;;;;;5070739;28;20072;-81
2021/09/16 03:55:33;;;;;;;24.55;17.63;;;11.00;95.30;;;;;;5062032;28;20056;-80
2021/09/16 03:58:00;;;;;;;27.77;19.35;;;11.00;95.20;;;;;;5062945;28;20070;-80
2021/09/16 04:00:27;;;;;;;31.95;20.35;;;11.00;95.50;;;;;;5054595;28;20128;-80
2021/09/16 04:02:56;;;;;;;27.38;16.77;;;10.90;95.50;;;;;;5061136;28;20083;-82
2021/09/16 04:05:23;;;;;;;31.00;18.63;;;10.90;95.40;;;;;;5070955;28;20127;-78
2021/09/16 04:07:50;;;;;;;26.05;17.95;;;10.90;95.20;;;;;;5060127;28;20052;-83
2021/09/16 04:10:17;;;;;;;27.58;19.55;;;10.90;95.20;;;;;;5073209;28;20095;-74
2021/09/16 04:12:44;;;;;;;32.33;18.00;;;10.90;95.20;;;;;;5066063;28;20140;-79
2021/09/16 04:15:12;;;;;;;31.75;21.05;;;10.90;95.20;;;;;;5053369;28;20162;-81
2021/09/16 04:17:39;;;;;;;27.58;18.90;;;10.90;95.40;;;;;;5064810;28;20124;-81
2021/09/16 04:20:07;;;;;;;25.13;16.85;;;10.80;95.30;;;;;;5070744;28;20191;-82
2021/09/16 04:22:34;;;;;;;25.77;16.95;;;10.80;95.30;;;;;;5070178;28;20066;-81
2021/09/16 04:25:01;;;;;;;24.75;16.45;;;10.80;95.40;;;;;;5069940;28;20037;-81
2021/09/16 04:27:28;;;;;;;24.05;15.35;;;10.80;95.30;;;;;;5068983;28;20088;-81
2021/09/16 04:29:55;;;;;;;23.55;16.10;;;10.80;95.40;;;;;;5070197;28;20110;-81
2021/09/16 04:32:22;;;;;;;21.50;15.43;;;10.80;95.50;;;;;;5069616;28;20049;-81
2021/09/16 04:34:49;;;;;;;25.27;15.43;;;10.80;95.30;;;;;;5059920;28;20492;-80
2021/09/16 04:37:19;;;;;;;24.90;16.60;;;10.70;95.40;;;;;;5059674;28;20041;-81
2021/09/16 04:39:47;;;;;;;18.80;14.68;;;10.70;95.20;;;;;;5070022;28;20045;-82
2021/09/16 04:42:14;;;;;;;19.90;14.65;;;10.70;95.20;;;;;;5053153;28;20101;-82
2021/09/16 04:44:41;;;;;;;19.77;14.40;;;10.70;95.20;;;;;;5062017;28;20055;-82
2021/09/16 04:47:08;;;;;;;21.40;15.27;;;10.70;95.20;;;;;;5048591;28;20052;-82
2021/09/16 04:49:35;;;;;;;17.25;13.18;;;10.70;95.20;;;;;;5053682;28;20048;-83
2021/09/16 04:52:02;;;;;;;16.65;12.90;;;10.70;95.20;;;;;;5058626;28;20075;-80
2021/09/16 04:54:32;;;;;;;16.77;12.57;;;10.60;95.10;;;;;;5058244;28;20148;-82
2021/09/16 04:56:58;;;;;;;18.42;12.93;;;10.60;95.20;;;;;;5060742;28;20045;-82
2021/09/16 04:59:25;;;;;;;19.25;12.65;;;10.60;95.40;;;;;;5069439;28;20048;-82
2021/09/16 05:01:52;;;;;;;19.55;12.52;;;10.60;95.30;;;;;;5057703;28;20056;-82
2021/09/16 05:04:19;;;;;;;18.67;12.82;;;10.60;95.20;;;;;;5070082;28;20049;-80
2021/09/16 05:06:46;;;;;;;13.55;11.60;;;10.60;95.10;;;;;;5069717;28;20045;-81
2021/09/16 05:09:13;;;;;;;18.92;12.80;;;10.70;95.30;;;;;;5053272;28;20059;-80
2021/09/16 05:11:41;;;;;;;19.20;13.88;;;10.70;95.40;;;;;;5061523;28;20044;-77
2021/09/16 05:14:09;;;;;;;17.98;13.50;;;10.70;95.50;;;;;;5077348;28;20086;-81
2021/09/16 05:16:37;;;;;;;17.67;12.55;;;10.70;95.40;;;;;;5058173;28;20048;-81
2021/09/16 05:19:04;;;;;;;19.85;12.82;;;10.70;95.40;;;;;;5069724;28;20068;-81
2021/09/16 05:21:31;;;;;;;22.75;14.60;;;10.70;95.40;;;;;;5060883;28;20055;-81
2021/09/16 05:23:58;;;;;;;21.15;14.95;;;10.80;95.30;;;;;;5069417;28;20044;-80
2021/09/16 05:26:25;;;;;;;21.83;13.18;;;10.70;95.20;;;;;;5070852;28;20131;-80
2021/09/16 05:28:52;;;;;;;20.30;14.00;;;10.70;95.20;;;;;;5071820;28;20088;-81
2021/09/16 05:31:19;;;;;;;17.75;13.65;;;10.70;95.10;;;;;;5073144;28;20470;-77
2021/09/16 05:33:46;;;;;;;18.08;12.20;;;10.70;95.10;;;;;;5075267;28;20040;-79
2021/09/16 05:36:13;;;;;;;20.63;12.93;;;10.70;95.10;;;;;;5049821;28;20048;-81
2021/09/16 05:38:40;;;;;;;18.17;13.27;;;10.70;95.10;;;;;;5054032;28;20400;-82
2021/09/16 05:41:07;;;;;;;18.33;13.15;;;10.60;95.20;;;;;;5059540;28;20040;-81
2021/09/16 05:43:34;;;;;;;25.30;14.05;;;10.60;95.20;;;;;;5054596;28;20049;-81
2021/09/16 05:46:01;;;;;;;27.15;19.65;;;10.60;95.20;;;;;;5071527;28;20097;-76
2021/09/16 05:48:28;;;;;;;263.63;189.75;;;10.60;95.40;;;;;;5046728;28;20063;-74
2021/09/16 05:50:56;;;;;;;103.05;77.22;;;10.60;95.30;;;;;;5040646;28;20416;-84
2021/09/16 05:53:23;;;;;;;46.63;34.58;;;10.60;95.30;;;;;;5069405;28;20484;-76
2021/09/16 05:55:50;;;;;;;37.15;27.23;;;10.60;95.30;;;;;;5060895;28;20128;-73
2021/09/16 05:58:17;;;;;;;33.83;23.88;;;10.60;95.10;;;;;;5071546;28;20078;-72
2021/09/16 06:00:44;;;;;;;26.02;18.98;;;10.60;95.30;;;;;;5058358;28;20095;-76
2021/09/16 06:03:11;;;;;;;22.92;17.33;;;10.60;95.40;;;;;;5066952;28;20128;-74
2021/09/16 06:05:38;;;;;;;21.58;14.43;;;10.60;95.40;;;;;;5047320;28;20125;-70
2021/09/16 06:08:05;;;;;;;18.88;14.00;;;10.70;95.60;;;;;;5042095;28;20108;-73
2021/09/16 06:10:32;;;;;;;19.98;14.60;;;10.70;95.50;;;;;;5071167;28;20075;-72
2021/09/16 06:12:59;;;;;;;20.60;13.48;;;10.80;95.60;;;;;;5070915;28;20103;-72
2021/09/16 06:15:26;;;;;;;48.33;34.45;;;10.80;95.70;;;;;;5073684;28;20045;-75
2021/09/16 06:17:53;;;;;;;29.52;21.23;;;10.90;95.80;;;;;;5064003;28;20040;-75
2021/09/16 06:20:20;;;;;;;39.70;29.42;;;11.00;95.80;;;;;;5071645;28;20036;-73
2021/09/16 06:22:47;;;;;;;33.75;24.67;;;11.10;95.90;;;;;;5067738;28;20382;-74
2021/09/16 06:25:15;;;;;;;30.13;19.55;;;11.20;95.80;;;;;;5071558;28;20637;-75
2021/09/16 06:27:43;;;;;;;28.20;19.33;;;11.20;95.80;;;;;;5053809;28;20131;-73
2021/09/16 06:30:11;;;;;;;24.92;17.58;;;11.30;95.70;;;;;;5054670;28;20106;-74
2021/09/16 06:32:38;;;;;;;20.98;16.38;;;11.40;95.90;;;;;;5058011;28;20480;-75
2021/09/16 06:35:06;;;;;;;25.05;18.40;;;11.50;95.90;;;;;;5061595;28;20148;-75
2021/09/16 06:37:33;;;;;;;25.08;19.08;;;11.60;96.10;;;;;;5062383;28;20051;-74
2021/09/16 06:40:00;;;;;;;33.95;24.58;;;11.70;96.00;;;;;;5083648;28;20043;-74
2021/09/16 06:42:27;;;;;;;33.83;23.33;;;11.70;96.00;;;;;;5040815;28;20057;-74
2021/09/16 06:44:54;;;;;;;28.08;20.98;;;11.80;95.80;;;;;;5058790;28;20326;-73
2021/09/16 06:47:21;;;;;;;25.77;17.58;;;11.80;95.70;;;;;;5062647;28;20503;-73
2021/09/16 06:49:48;;;;;;;26.40;17.83;;;11.90;95.60;;;;;;5082147;28;20139;-73
2021/09/16 06:52:16;;;;;;;29.65;19.42;;;11.90;95.50;;;;;;5083059;28;20175;-73
2021/09/16 06:54:44;;;;;;;126.85;101.85;;;11.90;95.60;;;;;;5081031;28;20110;-72
2021/09/16 06:57:11;;;;;;;61.45;47.30;;;12.00;95.60;;;;;;5053705;28;20050;-73
2021/09/16 06:59:38;;;;;;;54.78;39.17;;;12.00;95.80;;;;;;5071766;28;20139;-74
2021/09/16 07:02:05;;;;;;;39.80;27.15;;;12.00;95.70;;;;;;5072126;28;20067;-74
2021/09/16 07:04:37;;;;;;;32.80;24.55;;;12.00;95.80;;;;;;5055182;28;20059;-74
2021/09/16 07:07:07;;;;;;;33.03;21.35;;;12.10;95.70;;;;;;5039350;28;20052;-74
2021/09/16 07:09:34;;;;;;;30.95;21.42;;;12.10;95.70;;;;;;5071236;28;20136;-74
2021/09/16 07:12:02;;;;;;;25.83;19.55;;;12.20;95.60;;;;;;5060266;28;20120;-73
2021/09/16 07:14:30;;;;;;;27.05;19.73;;;12.20;95.70;;;;;;5066705;28;20045;-72
2021/09/16 07:16:57;;;;;;;33.13;21.98;;;12.20;96.00;;;;;;5063238;28;20135;-73
2021/09/16 07:19:24;;;;;;;35.25;22.73;;;12.30;95.80;;;;;;5043857;28;20135;-75
2021/09/16 07:21:52;;;;;;;36.17;23.15;;;12.40;96.00;;;;;;5028219;28;20060;-77
2021/09/16 07:24:20;;;;;;;36.33;23.73;;;12.40;96.00;;;;;;5048357;28;20114;-76
2021/09/16 07:26:50;;;;;;;31.27;21.38;;;12.50;96.00;;;;;;5060396;28;20127;-76
2021/09/16 07:29:18;;;;;;;33.55;23.48;;;12.50;96.00;;;;;;5043259;28;20488;-75
2021/09/16 07:31:45;;;;;;;30.35;21.25;;;12.60;96.00;;;;;;5054491;28;20147;-76
2021/09/16 07:34:12;;;;;;;33.25;23.15;;;12.70;95.80;;;;;;5057080;28;20488;-78
2021/09/16 07:36:39;;;;;;;33.88;23.38;;;12.80;95.50;;;;;;5053564;28;20056;-76
2021/09/16 07:39:06;;;;;;;31.42;23.00;;;12.90;95.60;;;;;;5081968;28;20067;-76
2021/09/16 07:41:33;;;;;;;34.75;23.17;;;12.90;95.70;;;;;;5082597;28;20062;-74
2021/09/16 07:44:01;;;;;;;35.33;23.13;;;13.10;95.70;;;;;;5058973;28;20462;-75
2021/09/16 07:46:28;;;;;;;55.85;45.28;;;13.10;95.50;;;;;;5065207;28;20044;-75
2021/09/16 07:48:55;;;;;;;47.58;34.00;;;13.20;95.60;;;;;;5071671;28;20123;-76
2021/09/16 07:51:22;;;;;;;65.38;52.05;;;13.40;95.60;;;;;;5057317;28;20079;-78
2021/09/16 07:53:49;;;;;;;39.70;26.48;;;13.50;95.40;;;;;;5068203;28;20044;-73
2021/09/16 07:56:16;;;;;;;28.38;22.67;;;13.70;95.40;;;;;;5061605;28;20403;-75
2021/09/16 07:58:43;;;;;;;30.63;22.45;;;13.90;94.90;;;;;;5062683;28;20124;-76
2021/09/16 08:01:10;;;;;;;28.15;20.20;;;14.10;94.70;;;;;;5072913;28;20126;-76
2021/09/16 08:03:38;;;;;;;26.48;21.08;;;14.30;94.60;;;;;;5091537;28;20127;-76
2021/09/16 08:06:06;;;;;;;28.05;19.95;;;14.50;94.70;;;;;;5091437;28;20450;-76
2021/09/16 08:08:33;;;;;;;32.03;20.85;;;14.80;94.20;;;;;;5074169;28;20555;-76
2021/09/16 08:11:01;;;;;;;27.05;20.13;;;15.10;94.00;;;;;;5053030;28;20060;-76
2021/09/16 08:13:28;;;;;;;25.27;19.70;;;15.40;93.70;;;;;;5075047;28;20081;-76
2021/09/16 08:15:55;;;;;;;28.42;20.65;;;15.70;93.10;;;;;;5072595;28;20466;-76
2021/09/16 08:18:22;;;;;;;27.30;19.42;;;15.80;93.00;;;;;;5090937;28;20096;-76
2021/09/16 08:20:50;;;;;;;25.52;19.92;;;16.00;92.70;;;;;;5073026;28;20091;-77
2021/09/16 08:23:17;;;;;;;22.70;18.08;;;16.20;92.40;;;;;;5072692;28;20131;-77
2021/09/16 08:25:45;;;;;;;25.13;18.45;;;16.30;92.80;;;;;;5059522;28;20044;-77
2021/09/16 08:28:12;;;;;;;27.90;19.88;;;16.40;92.30;;;;;;5052314;28;20076;-76
2021/09/16 08:30:39;;;;;;;23.88;18.25;;;16.50;92.30;;;;;;5070083;28;20052;-76
2021/09/16 08:33:07;;;;;;;25.00;19.35;;;16.60;92.20;;;;;;5070860;28;20135;-77
2021/09/16 08:35:34;;;;;;;22.70;17.65;;;16.60;92.40;;;;;;5070812;28;20045;-76
2021/09/16 08:38:01;;;;;;;23.23;17.75;;;16.60;91.90;;;;;;5052642;28;20048;-76
2021/09/16 08:40:28;;;;;;;19.67;15.65;;;16.60;91.60;;;;;;5035801;28;20139;-76
2021/09/16 08:42:55;;;;;;;22.33;14.80;;;16.60;91.00;;;;;;5052123;28;20213;-75
2021/09/16 08:45:24;;;;;;;22.35;16.38;;;16.50;91.20;;;;;;5070325;28;20089;-76
2021/09/16 08:47:53;;;;;;;21.40;15.15;;;16.50;90.70;;;;;;5053193;28;20056;-77
2021/09/16 08:50:22;;;;;;;23.75;16.33;;;16.40;91.10;;;;;;5060386;28;20052;-77
2021/09/16 08:52:50;;;;;;;22.25;15.25;;;16.30;91.00;;;;;;5081787;28;20074;-77
2021/09/16 08:55:18;;;;;;;24.13;17.13;;;16.30;90.90;;;;;;5059902;28;20376;-75
2021/09/16 08:57:47;;;;;;;22.55;16.08;;;16.30;91.00;;;;;;5054474;28;20068;-77
2021/09/16 09:00:19;;;;;;;22.10;16.98;;;16.30;90.90;;;;;;5064263;28;20048;-77
2021/09/16 09:02:46;;;;;;;24.58;17.92;;;16.40;90.50;;;;;;5056278;28;20658;-76
2021/09/16 09:05:14;;;;;;;27.03;18.47;;;16.40;90.60;;;;;;5036163;28;20049;-77
2021/09/16 09:07:52;;;;;;;22.83;17.55;;;16.50;90.40;;;;;;5035702;28;20055;-76
2021/09/16 09:10:42;;;;;;;22.17;17.00;;;16.60;89.10;;;;;;5053956;28;20071;-76
2021/09/16 09:13:17;;;;;;;21.77;16.58;;;16.60;89.70;;;;;;5066252;28;20051;-75
2021/09/16 09:15:46;;;;;;;20.17;15.88;;;16.70;90.20;;;;;;5035595;28;20222;-77
2021/09/16 09:18:17;;;;;;;29.08;16.67;;;16.80;90.30;;;;;;5070254;28;20068;-79
2021/09/16 09:21:03;;;;;;;21.67;14.52;;;16.90;90.00;;;;;;5056877;28;20060;-78
2021/09/16 09:23:35;;;;;;;17.75;13.13;;;17.00;88.10;;;;;;5067769;28;20131;-79
2021/09/16 09:26:21;;;;;;;17.48;12.68;;;17.10;88.70;;;;;;5051797;28;20106;-78
2021/09/16 09:28:49;;;;;;;20.67;15.30;;;17.20;87.80;;;;;;5078853;28;20131;-77
2021/09/16 09:31:23;;;;;;;16.80;13.90;;;17.20;88.20;;;;;;5092676;28;20087;-76
2021/09/16 09:33:50;;;;;;;17.05;12.73;;;17.30;89.00;;;;;;5084796;28;20044;-75
2021/09/16 09:36:20;;;;;;;14.25;10.20;;;17.40;87.90;;;;;;5074825;28;20044;-77
2021/09/16 09:38:55;;;;;;;12.45;9.02;;;17.50;86.10;;;;;;5055069;28;20139;-76
2021/09/16 09:41:35;;;;;;;14.77;9.70;;;17.60;84.20;;;;;;5073130;28;20097;-76
2021/09/16 09:44:13;;;;;;;12.90;9.45;;;17.80;86.10;;;;;;5037684;28;20521;-77
2021/09/16 09:46:51;;;;;;;9.50;7.38;;;17.90;83.30;;;;;;5082103;28;20380;-75
2021/09/16 09:49:23;;;;;;;11.20;8.82;;;17.90;84.70;;;;;;5086705;28;20055;-77
2021/09/16 09:51:52;;;;;;;13.50;9.57;;;18.00;83.70;;;;;;5075376;28;20417;-77
2021/09/16 09:54:38;;;;;;;13.13;9.77;;;18.00;82.80;;;;;;5054839;28;20392;-76
2021/09/16 09:57:14;;;;;;;11.43;9.05;;;18.00;81.10;;;;;;5073540;28;20155;-76
2021/09/16 10:00:12;;;;;;;12.80;9.50;;;18.10;82.60;;;;;;5072573;28;20408;-77
2021/09/16 10:02:39;;;;;;;11.20;8.70;;;18.20;81.10;;;;;;5073264;28;20055;-77
2021/09/16 10:05:32;;;;;;;12.25;8.75;;;18.40;83.50;;;;;;5055448;28;20063;-77
2021/09/16 10:08:08;;;;;;;10.20;8.80;;;18.50;82.10;;;;;;5072873;28;20045;-76
2021/09/16 10:10:38;;;;;;;10.35;8.48;;;18.50;80.80;;;;;;5055881;28;20049;-76
2021/09/16 10:13:05;;;;;;;11.15;7.78;;;18.60;80.50;;;;;;5054241;28;20552;-77
2021/09/16 10:15:32;;;;;;;9.32;8.32;;;18.60;81.10;;;;;;5055043;28;20045;-77
2021/09/16 10:17:59;;;;;;;10.18;7.65;;;18.50;80.10;;;;;;5072309;28;20044;-78
2021/09/16 10:20:27;;;;;;;11.15;8.15;;;18.60;80.80;;;;;;5072573;28;20041;-78
2021/09/16 10:22:57;;;;;;;9.35;7.75;;;18.70;79.70;;;;;;5072421;28;20048;-77
2021/09/16 10:25:26;;;;;;;9.45;7.60;;;18.90;80.40;;;;;;5038234;28;20452;-77
2021/09/16 10:27:59;;;;;;;12.43;7.57;;;18.90;80.20;;;;;;5054640;28;20048;-77
2021/09/16 10:30:26;;;;;;;10.73;8.15;;;18.90;78.10;;;;;;5072466;28;20131;-77
2021/09/16 10:33:00;;;;;;;10.23;7.97;;;18.90;79.40;;;;;;5072417;28;20477;-78
2021/09/16 10:35:27;;;;;;;10.82;7.07;;;18.90;78.00;;;;;;5054377;28;20056;-77
2021/09/16 10:37:54;;;;;;;10.05;7.63;;;18.90;79.40;;;;;;5054230;28;20056;-74
2021/09/16 10:40:29;;;;;;;9.52;7.35;;;19.00;78.90;;;;;;5074988;28;20201;-81
2021/09/16 10:42:59;;;;;;;10.57;7.82;;;19.00;78.60;;;;;;5065978;28;20131;-74
2021/09/16 10:45:35;;;;;;;24.50;20.17;;;19.10;80.40;;;;;;5065764;28;20055;-75
2021/09/16 10:48:32;;;;;;;61.53;53.45;;;19.20;79.30;;;;;;5075053;28;20052;-76
2021/09/16 10:51:01;;;;;;;14.82;13.32;;;19.30;77.50;;;;;;5075875;28;20101;-75
2021/09/16 10:53:33;;;;;;;;;;;19.30;78.40;;;;;;5092538;28;20483;-75
2021/09/16 10:56:04;;;;;;;11.75;8.40;;;19.40;80.50;;;;;;5058297;28;20006;-79
2021/09/16 10:58:31;;;;;;;7.43;6.40;;;19.40;79.70;;;;;;5053753;28;20136;-75
2021/09/16 11:00:58;;;;;;;11.35;7.20;;;19.50;79.50;;;;;;5073204;28;20525;-75
2021/09/16 11:03:25;;;;;;;9.65;6.57;;;19.60;78.10;;;;;;5074278;28;20134;-75
2021/09/16 11:05:58;;;;;;;9.52;6.60;;;19.60;77.00;;;;;;5074038;28;20056;-75
2021/09/16 11:08:58;;;;;;;9.73;7.00;;;19.60;76.70;;;;;;5074381;28;20070;-73
2021/09/16 11:11:38;;;;;;;7.60;6.80;;;19.60;75.00;;;;;;5050777;28;20511;-77
2021/09/16 11:14:08;;;;;;;7.32;5.93;;;19.70;77.90;;;;;;5033844;28;20556;-74
2021/09/16 11:16:35;;;;;;;6.88;6.00;;;19.70;77.30;;;;;;5051406;28;20056;-73
2021/09/16 11:19:14;;;;;;;9.02;6.63;;;19.70;77.80;;;;;;5055723;28;20048;-77
2021/09/16 11:21:41;;;;;;;7.10;5.78;;;19.80;77.20;;;;;;5072927;28;20492;-76
2021/09/16 11:24:08;;;;;;;8.30;6.47;;;19.90;77.10;;;;;;5082931;28;20131;-75
2021/09/16 11:26:35;;;;;;;8.75;6.78;;;20.10;77.70;;;;;;5090682;28;20050;-75
2021/09/16 11:29:08;;;;;;;6.82;5.80;;;20.30;78.00;;;;;;5086315;28;20047;-73
2021/09/16 11:31:35;;;;;;;8.90;5.53;;;20.60;75.40;;;;;;5060867;28;20040;-75
2021/09/16 11:34:07;;;;;;;8.07;6.10;;;20.80;75.20;;;;;;5074532;28;20526;-79
2021/09/16 11:36:34;;;;;;;6.40;5.68;;;21.00;76.40;;;;;;5033291;28;20063;-76
2021/09/16 11:39:19;;;;;;;10.57;6.75;;;21.20;73.90;;;;;;5058069;28;20095;-81
2021/09/16 11:41:46;;;;;;;6.60;5.03;;;21.30;71.40;;;;;;5065279;28;20487;-77
2021/09/16 11:44:13;;;;;;;5.65;4.78;;;21.30;72.50;;;;;;5070881;28;20401;-77
2021/09/16 11:46:40;;;;;;;5.28;4.70;;;21.20;71.10;;;;;;5053003;28;20053;-74
2021/09/16 11:49:07;;;;;;;7.53;4.20;;;21.10;71.40;;;;;;5070895;28;20524;-77
2021/09/16 11:51:34;;;;;;;5.50;4.70;;;21.00;72.70;;;;;;5070875;28;20074;-76
2021/09/16 11:54:19;;;;;;;6.00;4.88;;;20.90;71.90;;;;;;5088043;28;20051;-80
2021/09/16 11:56:46;;;;;;;14.07;12.30;;;20.80;72.10;;;;;;5066039;28;20045;-82
2021/09/16 11:59:13;;;;;;;12.75;11.43;;;20.80;73.80;;;;;;5066162;28;20084;-79
2021/09/16 12:01:54;;;;;;;24.25;21.38;;;20.80;75.00;;;;;;5070077;28;20046;-75
2021/09/16 12:04:40;;;;;;;23.08;17.70;;;20.80;74.70;;;;;;5057672;28;20094;-75
2021/09/16 12:07:07;;;;;;;29.15;16.17;;;21.00;73.20;;;;;;5065903;28;20048;-75
2021/09/16 12:09:34;;;;;;;11.25;8.23;;;21.10;74.50;;;;;;5045194;28;20445;-75
2021/09/16 12:12:02;;;;;;;9.63;6.45;;;21.30;75.00;;;;;;5067559;28;20040;-75
2021/09/16 12:14:31;;;;;;;17.70;6.10;;;21.40;73.70;;;;;;5059840;28;20040;-75
2021/09/16 12:17:02;;;;;;;7.13;5.97;;;21.40;73.40;;;;;;5064990;28;20048;-75
2021/09/16 12:19:35;;;;;;;5.97;5.40;;;21.50;71.80;;;;;;5062563;28;20491;-74
2021/09/16 12:22:02;;;;;;;6.05;5.22;;;21.50;72.10;;;;;;5052350;28;20133;-75
2021/09/16 12:24:29;;;;;;;8.32;5.28;;;21.60;72.20;;;;;;5087028;28;20063;-74
2021/09/16 12:26:56;;;;;;;42.03;8.98;;;21.70;71.50;;;;;;5086645;28;20083;-73
2021/09/16 12:29:25;;;;;;;11.00;4.90;;;21.60;70.30;;;;;;5086582;28;20050;-74
2021/09/16 12:32:03;;;;;;;5.75;4.20;;;21.40;70.10;;;;;;5082735;28;20188;-75
2021/09/16 12:34:34;;;;;;;4.87;4.37;;;21.50;68.40;;;;;;5055670;28;20118;-75
2021/09/16 12:37:04;;;;;;;7.80;4.47;;;21.50;68.30;;;;;;5069267;28;20071;-76
2021/09/16 12:39:40;;;;;;;;;;;21.50;69.60;;;;;;5039111;28;20051;-73